Time;durP1;ratioP1;P1;durP2;ratioP2;P2;SDS_P1;SDS_P2;PMS_P1;PMS_P2;Temp;Humidity;BMP_temperature;BMP_pressure;BME280_temperature;BME280_humidity;BME280_pressure;Samples;Min_cycle;Max_cycle;Signal;HPM_P1;HPM_P2
2022/03/16 00:01:53;;;;;;;30.17;19.52;;;;;;;7.29;76.15;102382.13;6246391;22;20058;-63
2022/03/16 00:04:24;;;;;;;31.60;19.00;;;;;;;7.31;75.68;102385.72;6246155;22;20000;-63
2022/03/16 00:06:50;;;;;;;30.38;18.90;;;;;;;7.21;75.05;102379.13;6245960;22;20050;-63
2022/03/16 00:09:15;;;;;;;29.02;20.13;;;;;;;7.28;76.07;102391.75;6246347;23;20329;-63
2022/03/16 00:11:41;;;;;;;27.50;18.60;;;;;;;7.31;75.35;102388.34;6246268;22;20000;-63
2022/03/16 00:14:06;;;;;;;28.58;18.45;;;;;;;7.33;75.38;102388.44;6246021;22;20039;-63
2022/03/16 00:16:31;;;;;;;30.60;19.40;;;;;;;7.32;75.48;102390.16;6245934;22;20057;-63
2022/03/16 00:18:58;;;;;;;26.95;17.60;;;;;;;7.31;75.40;102392.72;6246058;22;20035;-63
2022/03/16 00:21:24;;;;;;;28.60;18.70;;;;;;;7.32;75.31;102384.00;6218962;23;20012;-63
2022/03/16 00:23:49;;;;;;;29.10;18.65;;;;;;;7.30;74.85;102391.81;6246204;22;20299;-63
2022/03/16 00:26:15;;;;;;;24.80;17.65;;;;;;;7.29;74.72;102395.28;6246056;22;20000;-63
2022/03/16 00:28:40;;;;;;;25.20;17.42;;;;;;;7.29;74.22;102397.91;6245959;22;20007;-63
2022/03/16 00:31:06;;;;;;;25.27;17.58;;;;;;;7.28;74.43;102391.75;6246120;23;20008;-62
2022/03/16 00:33:33;;;;;;;25.75;17.38;;;;;;;7.24;74.21;102392.44;6246044;23;20315;-63
2022/03/16 00:36:00;;;;;;;25.17;17.15;;;;;;;7.23;74.61;102387.06;6246104;22;20000;-62
2022/03/16 00:38:26;;;;;;;25.63;17.20;;;;;;;7.17;74.81;102394.69;6246138;22;20000;-63
2022/03/16 00:40:52;;;;;;;28.73;18.52;;;;;;;7.07;74.71;102390.69;6245894;22;20026;-63
2022/03/16 00:43:17;;;;;;;23.42;17.17;;;;;;;7.05;73.65;102388.81;6245870;22;20477;-62
2022/03/16 00:45:42;;;;;;;25.55;17.75;;;;;;;6.94;73.96;102391.81;6245713;23;20075;-62
2022/03/16 00:48:08;;;;;;;23.45;16.70;;;;;;;6.89;73.60;102395.00;6245682;22;20032;-63
2022/03/16 00:50:36;;;;;;;24.52;17.40;;;;;;;6.86;74.20;102406.28;6245844;22;20087;-62
2022/03/16 00:53:01;;;;;;;25.73;17.08;;;;;;;6.84;73.66;102391.25;6245607;22;20024;-62
2022/03/16 00:55:27;;;;;;;26.38;18.35;;;;;;;6.78;74.92;102390.13;6245759;23;20005;-63
2022/03/16 00:57:52;;;;;;;24.67;17.55;;;;;;;6.68;74.80;102385.25;6245612;23;20444;-63
2022/03/16 01:00:18;;;;;;;27.55;18.35;;;;;;;6.64;75.84;102388.53;6246119;23;20011;-63
2022/03/16 01:02:43;;;;;;;28.48;18.77;;;;;;;6.61;75.95;102385.72;6245987;22;20008;-62
2022/03/16 01:05:09;;;;;;;28.63;18.95;;;;;;;6.56;75.82;102389.84;6245639;22;20071;-63
2022/03/16 01:07:35;;;;;;;27.10;18.60;;;;;;;6.56;76.38;102400.34;6245459;22;20051;-63
2022/03/16 01:10:00;;;;;;;29.10;18.98;;;;;;;6.58;76.36;102396.06;6246081;22;20433;-63
2022/03/16 01:12:26;;;;;;;29.58;19.58;;;;;;;6.51;76.48;102384.38;6245679;22;20443;-62
2022/03/16 01:14:52;;;;;;;34.22;20.30;;;;;;;6.47;77.51;102381.50;6245741;22;20004;-63
2022/03/16 01:17:17;;;;;;;30.67;20.10;;;;;;;6.42;77.15;102375.97;6245691;22;20425;-62
2022/03/16 01:19:43;;;;;;;28.33;20.35;;;;;;;6.38;77.33;102378.38;6245824;23;20083;-62
2022/03/16 01:22:09;;;;;;;30.13;19.67;;;;;;;6.39;77.54;102381.09;6245872;23;20027;-63
2022/03/16 01:24:35;;;;;;;31.13;20.38;;;;;;;6.42;77.74;102377.72;6245551;23;20062;-63
2022/03/16 01:27:01;;;;;;;29.63;19.17;;;;;;;6.42;77.58;102375.09;6245498;22;20004;-63
2022/03/16 01:29:28;;;;;;;27.55;19.40;;;;;;;6.36;78.21;102373.06;6245773;22;20031;-63
2022/03/16 01:31:54;;;;;;;26.45;19.05;;;;;;;6.37;77.63;102374.84;6245641;23;20011;-63
2022/03/16 01:34:21;;;;;;;30.40;20.08;;;;;;;6.40;78.25;102379.38;6245929;22;20004;-63
2022/03/16 01:36:47;;;;;;;33.70;19.70;;;;;;;6.44;78.18;102378.72;6245675;22;20033;-63
2022/03/16 01:39:12;;;;;;;32.28;19.98;;;;;;;6.44;78.30;102373.47;6245430;23;20101;-63
2022/03/16 01:41:42;;;;;;;27.92;19.60;;;;;;;6.42;78.35;102367.22;6244017;23;20413;-63
2022/03/16 01:44:07;;;;;;;29.63;19.83;;;;;;;6.38;78.14;102371.44;6245544;22;20074;-63
2022/03/16 01:46:34;;;;;;;29.33;18.65;;;;;;;6.41;78.00;102362.78;6245541;22;20022;-63
2022/03/16 01:48:59;;;;;;;29.88;18.73;;;;;;;6.38;77.56;102358.31;6246637;22;20433;-62
2022/03/16 01:51:25;;;;;;;28.42;18.70;;;;;;;6.44;77.52;102355.06;6247693;22;20027;-62
2022/03/16 01:53:50;;;;;;;28.45;19.25;;;;;;;6.40;77.74;102347.88;6247019;23;20000;-63
2022/03/16 01:56:16;;;;;;;27.42;17.85;;;;;;;6.39;77.51;102343.44;6247211;22;20012;-63
2022/03/16 01:58:42;;;;;;;25.75;17.50;;;;;;;6.42;77.47;102351.44;6247591;22;20004;-62
2022/03/16 02:01:08;;;;;;;27.52;18.23;;;;;;;6.38;77.13;102344.25;6247731;22;20012;-62
2022/03/16 02:03:33;;;;;;;28.77;17.75;;;;;;;6.33;77.75;102335.22;6247268;22;20004;-62
2022/03/16 02:06:00;;;;;;;24.77;17.27;;;;;;;6.32;77.90;102341.31;6247251;22;20001;-63
2022/03/16 02:08:28;;;;;;;25.50;16.63;;;;;;;6.28;77.85;102345.50;6246940;22;20004;-63
2022/03/16 02:10:53;;;;;;;26.25;16.58;;;;;;;6.28;78.11;102345.50;6247512;22;20004;-63
2022/03/16 02:13:19;;;;;;;26.55;17.40;;;;;;;6.31;77.92;102334.25;6247545;22;20444;-62
2022/03/16 02:15:44;;;;;;;25.05;17.48;;;;;;;6.24;77.93;102335.66;6248312;22;20003;-62
2022/03/16 02:18:10;;;;;;;24.38;16.77;;;;;;;6.20;77.99;102331.06;6247512;22;20437;-62
2022/03/16 02:20:37;;;;;;;24.95;17.23;;;;;;;6.16;78.46;102324.75;6247348;22;20000;-62
2022/03/16 02:23:07;;;;;;;22.83;15.77;;;;;;;6.13;77.96;102324.63;6247083;22;20414;-63
2022/03/16 02:25:47;;;;;;;25.45;16.40;;;;;;;6.09;78.38;102321.75;6246972;22;20414;-63
2022/03/16 02:28:13;;;;;;;25.05;16.70;;;;;;;6.05;78.08;102309.28;6245324;23;20073;-62
2022/03/16 02:30:40;;;;;;;27.88;17.55;;;;;;;6.06;78.91;102313.69;6247152;22;20075;-62
2022/03/16 02:33:05;;;;;;;26.38;17.02;;;;;;;6.06;78.69;102316.31;6246891;23;20004;-63
2022/03/16 02:35:31;;;;;;;25.33;16.42;;;;;;;6.03;78.14;102323.19;6247172;23;20083;-63
2022/03/16 02:37:59;;;;;;;25.85;15.90;;;;;;;6.06;78.12;102332.97;6245202;23;20377;-63
2022/03/16 02:40:24;;;;;;;25.60;16.80;;;;;;;6.09;78.64;102330.53;6245393;23;20012;-63
2022/03/16 02:42:50;;;;;;;24.33;16.63;;;;;;;6.06;78.19;102319.84;6246905;23;20444;-63
2022/03/16 02:45:16;;;;;;;22.75;16.10;;;;;;;6.09;78.31;102325.28;6246863;22;20004;-62
2022/03/16 02:47:42;;;;;;;23.33;16.20;;;;;;;6.10;77.78;102332.31;6244449;23;20016;-62
2022/03/16 02:50:09;;;;;;;22.45;16.17;;;;;;;6.11;77.61;102323.63;6246353;22;20015;-63
2022/03/16 02:52:35;;;;;;;23.08;15.82;;;;;;;6.10;78.26;102329.69;6246921;22;20008;-63
2022/03/16 02:55:00;;;;;;;24.90;16.30;;;;;;;6.03;78.13;102314.44;6246674;22;20330;-63
2022/03/16 02:57:26;;;;;;;21.50;15.00;;;;;;;6.05;78.11;102327.66;6246442;22;20015;-63
2022/03/16 02:59:52;;;;;;;20.90;15.05;;;;;;;6.02;78.08;102328.38;6247122;22;20000;-62
2022/03/16 03:02:17;;;;;;;23.33;14.80;;;;;;;6.01;77.98;102327.47;6246662;22;20357;-62
2022/03/16 03:04:42;;;;;;;22.25;15.32;;;;;;;5.98;78.10;102315.91;6246620;22;20008;-62
2022/03/16 03:07:09;;;;;;;23.48;15.88;;;;;;;5.91;78.19;102306.81;6246543;22;20058;-62
2022/03/16 03:09:35;;;;;;;23.67;16.10;;;;;;;5.86;78.42;102308.25;6246591;22;20020;-62
2022/03/16 03:12:02;;;;;;;24.17;16.40;;;;;;;5.85;79.05;102314.31;6246659;22;20118;-63
2022/03/16 03:14:28;;;;;;;24.63;15.40;;;;;;;5.82;78.70;102310.63;6246703;22;20011;-63
2022/03/16 03:16:53;;;;;;;23.45;15.98;;;;;;;5.74;79.05;102310.25;6246577;23;20079;-62
2022/03/16 03:19:21;;;;;;;23.52;16.05;;;;;;;5.74;79.28;102311.16;6246606;22;20306;-63
2022/03/16 03:21:49;;;;;;;22.27;15.43;;;;;;;5.75;79.09;102314.66;6246522;22;20488;-62
2022/03/16 03:24:15;;;;;;;26.92;16.63;;;;;;;5.73;79.29;102316.28;6246313;22;20000;-62
2022/03/16 03:26:40;;;;;;;22.73;16.35;;;;;;;5.67;79.57;102323.84;6246439;23;20055;-62
2022/03/16 03:29:06;;;;;;;25.02;16.75;;;;;;;5.62;79.94;102317.44;6246406;22;20008;-62
2022/03/16 03:31:31;;;;;;;24.00;16.15;;;;;;;5.60;79.64;102322.59;6246359;22;20388;-62
2022/03/16 03:33:57;;;;;;;26.05;16.65;;;;;;;5.58;79.57;102324.25;6246344;22;20014;-63
2022/03/16 03:36:23;;;;;;;26.38;16.55;;;;;;;5.57;80.18;102325.06;6246273;22;20084;-62
2022/03/16 03:38:48;;;;;;;23.77;16.77;;;;;;;5.54;80.04;102324.88;6246167;22;20004;-62
2022/03/16 03:41:14;;;;;;;26.20;16.95;;;;;;;5.50;80.22;102326.44;6246364;22;20051;-63
2022/03/16 03:43:40;;;;;;;24.55;16.40;;;;;;;5.49;79.61;102327.25;6246358;22;20061;-63
2022/03/16 03:46:05;;;;;;;26.00;16.35;;;;;;;5.51;80.30;102329.94;6246367;22;20083;-63
2022/03/16 03:48:31;;;;;;;24.33;16.42;;;;;;;5.49;79.82;102323.75;6246034;22;20008;-62
2022/03/16 03:50:56;;;;;;;24.35;16.63;;;;;;;5.51;79.48;102324.72;6246332;22;20426;-62
2022/03/16 03:53:21;;;;;;;22.73;15.65;;;;;;;5.49;79.74;102327.25;6246151;22;20042;-63
2022/03/16 03:55:47;;;;;;;22.90;15.98;;;;;;;5.44;80.38;102327.84;6245748;23;20099;-62
2022/03/16 03:58:12;;;;;;;25.52;16.80;;;;;;;5.41;80.67;102325.03;6246417;22;20057;-62
2022/03/16 04:00:38;;;;;;;24.00;16.77;;;;;;;5.42;80.41;102327.72;6246090;23;20149;-63
2022/03/16 04:03:03;;;;;;;27.50;17.58;;;;;;;5.40;80.32;102321.50;6246127;22;20000;-63
2022/03/16 04:05:29;;;;;;;26.15;17.48;;;;;;;5.36;80.91;102324.78;6246316;22;20011;-63
2022/03/16 04:07:54;;;;;;;25.15;17.52;;;;;;;5.37;81.38;102326.56;6245958;22;20022;-63
2022/03/16 04:10:20;;;;;;;26.25;17.77;;;;;;;5.33;80.95;102326.31;6245762;22;20330;-63
2022/03/16 04:12:45;;;;;;;25.13;18.02;;;;;;;5.28;81.17;102320.84;6245951;23;20070;-62
2022/03/16 04:15:11;;;;;;;26.35;17.60;;;;;;;5.28;81.29;102323.44;6246045;22;20004;-62
2022/03/16 04:17:37;;;;;;;27.45;18.20;;;;;;;5.26;81.19;102312.84;6245901;22;20421;-63
2022/03/16 04:20:04;;;;;;;29.30;18.83;;;;;;;5.25;81.68;102313.69;6245959;22;20007;-63
2022/03/16 04:22:29;;;;;;;28.30;17.65;;;;;;;5.27;82.10;102314.69;6245990;22;20007;-63
2022/03/16 04:24:56;;;;;;;27.88;18.48;;;;;;;5.26;81.40;102317.19;6245875;22;20004;-63
2022/03/16 04:27:22;;;;;;;28.90;19.23;;;;;;;5.24;81.56;102316.22;6246037;22;20083;-63
2022/03/16 04:29:48;;;;;;;29.85;19.23;;;;;;;5.19;82.59;102313.34;6246170;22;20008;-62
2022/03/16 04:32:13;;;;;;;27.80;18.55;;;;;;;5.18;82.56;102318.50;6245954;23;20000;-63
2022/03/16 04:34:39;;;;;;;29.15;19.38;;;;;;;5.13;83.41;102312.09;6246017;22;20004;-63
2022/03/16 04:37:05;;;;;;;28.45;18.75;;;;;;;5.09;82.80;102311.00;6245915;23;20376;-62
2022/03/16 04:39:31;;;;;;;29.50;19.90;;;;;;;5.02;83.48;102307.16;6245888;22;20004;-63
2022/03/16 04:41:56;;;;;;;28.17;19.33;;;;;;;5.06;83.88;102309.97;6245946;22;20011;-63
2022/03/16 04:44:21;;;;;;;27.30;19.10;;;;;;;5.06;83.71;102312.59;6245878;22;20004;-62
2022/03/16 04:46:47;;;;;;;31.00;20.17;;;;;;;5.05;83.70;102308.13;6245753;23;20062;-63
2022/03/16 04:49:12;;;;;;;31.33;20.35;;;;;;;5.00;84.05;102300.91;6245661;23;20373;-63
2022/03/16 04:51:39;;;;;;;26.52;19.08;;;;;;;4.98;83.61;102296.44;6245685;23;20027;-62
2022/03/16 04:54:04;;;;;;;29.10;19.27;;;;;;;4.96;84.78;102298.94;6246161;22;20078;-63
2022/03/16 04:56:29;;;;;;;29.02;21.45;;;;;;;4.96;84.28;102300.66;6245294;22;20493;-63
2022/03/16 04:58:55;;;;;;;31.80;20.38;;;;;;;4.93;83.96;102311.88;6245728;23;20507;-63
2022/03/16 05:01:20;;;;;;;32.25;19.92;;;;;;;4.92;84.42;102294.34;6246054;22;20000;-63
2022/03/16 05:03:46;;;;;;;30.50;20.33;;;;;;;4.90;84.47;102296.00;6245612;22;20352;-63
2022/03/16 05:06:12;;;;;;;28.80;19.38;;;;;;;4.88;84.52;102289.78;6245300;22;20000;-63
2022/03/16 05:08:37;;;;;;;27.67;19.13;;;;;;;4.91;84.37;102300.41;6245725;23;20008;-63
2022/03/16 05:11:04;;;;;;;30.02;21.08;;;;;;;4.84;84.72;102306.13;6245692;22;20000;-64
2022/03/16 05:13:30;;;;;;;29.48;18.77;;;;;;;4.90;85.15;102313.41;6245521;22;20000;-63
2022/03/16 05:15:56;;;;;;;31.73;19.30;;;;;;;4.94;84.54;102318.03;6245683;23;20011;-63
2022/03/16 05:18:23;;;;;;;27.13;19.23;;;;;;;4.96;84.57;102308.53;6245703;23;20329;-63
2022/03/16 05:20:49;;;;;;;30.63;20.25;;;;;;;4.89;84.48;102314.25;6245625;22;20358;-63
2022/03/16 05:23:14;;;;;;;29.73;19.27;;;;;;;4.86;84.54;102311.44;6246385;22;20000;-63
2022/03/16 05:25:41;;;;;;;29.02;18.65;;;;;;;4.88;84.75;102313.34;6247523;23;20007;-63
2022/03/16 05:28:07;;;;;;;26.67;18.17;;;;;;;4.89;84.47;102309.00;6247499;22;20417;-63
2022/03/16 05:30:33;;;;;;;30.27;21.05;;;;;;;4.87;85.17;102308.91;6247511;23;20014;-63
2022/03/16 05:33:00;;;;;;;28.08;18.80;;;;;;;4.87;84.69;102305.38;6247580;22;20032;-63
2022/03/16 05:35:26;;;;;;;27.65;19.25;;;;;;;4.84;84.93;102293.03;6247558;22;20011;-62
2022/03/16 05:37:51;;;;;;;27.15;18.65;;;;;;;4.85;84.40;102296.53;6247468;22;20326;-63
2022/03/16 05:40:17;;;;;;;27.08;18.00;;;;;;;4.83;85.06;102293.81;6247533;22;20011;-63
2022/03/16 05:42:42;;;;;;;25.45;17.73;;;;;;;4.82;84.56;102286.78;6246879;22;20007;-64
2022/03/16 05:45:09;;;;;;;28.17;17.73;;;;;;;4.83;84.87;102288.59;6246977;23;20084;-63
2022/03/16 05:47:34;;;;;;;26.63;17.48;;;;;;;4.82;84.78;102293.75;6247195;22;20008;-63
2022/03/16 05:50:00;;;;;;;30.27;18.48;;;;;;;4.80;85.60;102292.75;6246843;23;20392;-63
2022/03/16 05:52:26;;;;;;;29.17;18.50;;;;;;;4.80;85.39;102293.66;6246548;22;20004;-63
2022/03/16 05:54:53;;;;;;;26.50;16.90;;;;;;;4.80;85.88;102303.22;6246640;22;20334;-63
2022/03/16 05:57:20;;;;;;;23.77;16.63;;;;;;;4.79;84.97;102297.06;6246006;22;20016;-64
2022/03/16 05:59:46;;;;;;;24.42;16.75;;;;;;;4.79;85.88;102297.06;6246578;22;20342;-63
2022/03/16 06:02:13;;;;;;;25.17;15.88;;;;;;;4.80;85.25;102290.13;6246736;22;20004;-63
2022/03/16 06:04:39;;;;;;;24.13;15.50;;;;;;;4.83;84.97;102303.41;6246511;22;20027;-63
2022/03/16 06:07:06;;;;;;;26.00;16.52;;;;;;;4.85;85.45;102307.03;6246911;22;20001;-63
2022/03/16 06:09:32;;;;;;;27.52;17.40;;;;;;;4.87;84.83;102308.00;6246249;22;20434;-63
2022/03/16 06:12:05;;;;;;;24.92;16.27;;;;;;;4.91;85.21;102312.59;6246872;22;20054;-63
2022/03/16 06:14:31;;;;;;;23.58;15.35;;;;;;;4.94;84.90;102315.41;6246310;22;20378;-63
2022/03/16 06:16:57;;;;;;;24.48;15.65;;;;;;;4.94;84.39;102318.91;6246450;22;20000;-62
2022/03/16 06:19:23;;;;;;;25.55;15.98;;;;;;;4.98;84.56;102320.91;6246387;22;20000;-63
2022/03/16 06:21:49;;;;;;;23.48;14.82;;;;;;;5.01;84.49;102322.78;6246532;22;20471;-64
2022/03/16 06:24:14;;;;;;;21.52;14.07;;;;;;;5.05;83.96;102316.91;6246343;22;20004;-63
2022/03/16 06:26:41;;;;;;;19.38;13.57;;;;;;;5.15;84.32;102337.59;6246206;22;20004;-63
2022/03/16 06:29:07;;;;;;;22.33;14.50;;;;;;;5.25;83.60;102336.38;6245941;22;20019;-63
2022/03/16 06:31:34;;;;;;;20.08;13.50;;;;;;;5.35;84.29;102328.19;6246193;22;20023;-63
2022/03/16 06:34:00;;;;;;;20.27;13.35;;;;;;;5.40;84.02;102331.09;6245917;22;20066;-63
2022/03/16 06:36:26;;;;;;;20.35;13.63;;;;;;;5.41;83.47;102331.19;6245956;22;20008;-63
2022/03/16 06:38:52;;;;;;;22.10;13.75;;;;;;;5.46;83.33;102337.56;6246204;22;20031;-64
2022/03/16 06:41:18;;;;;;;19.83;13.65;;;;;;;5.50;83.02;102336.94;6245937;22;20011;-64
2022/03/16 06:43:43;;;;;;;21.50;14.20;;;;;;;5.54;82.93;102330.13;6246000;23;20000;-63
2022/03/16 06:46:08;;;;;;;25.73;13.68;;;;;;;5.48;82.87;102321.91;6245765;22;20049;-63
2022/03/16 06:48:34;;;;;;;20.80;13.20;;;;;;;5.58;82.58;102321.63;6245846;22;20086;-63
2022/03/16 06:50:59;;;;;;;21.35;13.40;;;;;;;5.71;82.26;102331.06;6245893;23;20073;-63
2022/03/16 06:53:25;;;;;;;20.63;13.43;;;;;;;5.81;82.02;102327.19;6245937;22;20079;-63
2022/03/16 06:55:51;;;;;;;20.50;13.10;;;;;;;5.90;82.13;102317.19;6245864;22;20016;-63
2022/03/16 06:58:16;;;;;;;20.13;13.20;;;;;;;6.02;81.28;102318.78;6245944;22;20008;-64
2022/03/16 07:00:41;;;;;;;20.23;12.55;;;;;;;6.16;81.33;102303.75;6245755;23;20004;-63
2022/03/16 07:03:07;;;;;;;20.15;13.48;;;;;;;6.31;80.65;102294.88;6245697;23;19996;-63
2022/03/16 07:05:35;;;;;;;19.50;13.23;;;;;;;6.40;80.06;102296.25;6245872;22;20463;-63
2022/03/16 07:08:06;;;;;;;19.48;12.82;;;;;;;6.47;79.56;102293.13;6245644;22;20087;-63
2022/03/16 07:10:32;;;;;;;17.30;12.05;;;;;;;6.47;79.77;102287.88;6246267;22;20034;-63
2022/03/16 07:12:59;;;;;;;19.27;11.27;;;;;;;6.57;78.72;102289.22;6245624;22;20014;-64
2022/03/16 07:15:25;;;;;;;18.98;11.40;;;;;;;6.68;78.57;102287.13;6245973;22;20008;-63
2022/03/16 07:17:51;;;;;;;17.48;11.00;;;;;;;6.82;77.98;102287.81;6246068;22;20079;-63
2022/03/16 07:20:16;;;;;;;16.52;11.13;;;;;;;7.00;77.38;102292.22;6245627;23;20031;-63
2022/03/16 07:22:45;;;;;;;18.83;12.77;;;;;;;7.10;77.28;102284.78;6245657;22;20365;-63
2022/03/16 07:25:11;;;;;;;16.52;11.70;;;;;;;7.24;77.21;102278.47;6245552;22;20031;-63
2022/03/16 07:27:38;;;;;;;15.52;10.85;;;;;;;7.35;76.89;102279.88;6245376;22;20011;-63
2022/03/16 07:30:08;;;;;;;16.10;10.98;;;;;;;7.43;75.78;102269.72;6245594;22;20011;-63
2022/03/16 07:32:39;;;;;;;18.20;11.75;;;;;;;7.56;76.14;102274.69;6245602;22;20000;-63
2022/03/16 07:35:06;;;;;;;16.70;10.95;;;;;;;7.70;75.42;102273.59;6245426;22;20075;-63
2022/03/16 07:37:32;;;;;;;15.85;10.35;;;;;;;7.82;75.06;102272.34;6245654;22;20083;-63
2022/03/16 07:39:58;;;;;;;16.90;11.52;;;;;;;7.96;72.99;102268.59;6245595;22;20512;-63
2022/03/16 07:42:23;;;;;;;14.98;10.75;;;;;;;8.00;73.68;102274.06;6245758;22;20028;-63
2022/03/16 07:44:50;;;;;;;15.45;10.52;;;;;;;8.03;73.08;102279.47;6245887;23;20000;-63
2022/03/16 07:47:16;;;;;;;14.20;10.07;;;;;;;8.07;73.57;102266.44;6245482;22;20026;-63
2022/03/16 07:49:42;;;;;;;14.77;10.55;;;;;;;8.22;73.15;102261.81;6245430;23;20430;-63
2022/03/16 07:52:08;;;;;;;16.38;11.27;;;;;;;8.31;71.91;102259.63;6245351;22;20480;-62
2022/03/16 07:54:33;;;;;;;18.75;11.35;;;;;;;8.40;72.97;102273.22;6245576;22;20008;-63
2022/03/16 07:56:59;;;;;;;15.30;10.63;;;;;;;8.43;71.75;102268.03;6244670;22;20012;-64
2022/03/16 07:59:25;;;;;;;15.68;10.80;;;;;;;8.48;72.71;102268.28;6245294;22;20430;-63
2022/03/16 08:01:50;;;;;;;16.77;10.38;;;;;;;8.54;72.62;102260.59;6245671;22;20075;-63
2022/03/16 08:04:16;;;;;;;18.60;10.48;;;;;;;8.63;71.30;102268.88;6245359;22;20004;-63
2022/03/16 08:06:44;;;;;;;18.30;10.85;;;;;;;8.71;71.90;102278.00;6245227;23;20414;-63
2022/03/16 08:09:09;;;;;;;16.48;11.32;;;;;;;8.76;70.64;102270.28;6245589;22;20275;-63
2022/03/16 08:11:35;;;;;;;15.88;10.88;;;;;;;8.86;71.06;102272.47;6245271;22;20004;-63
2022/03/16 08:14:00;;;;;;;15.82;10.02;;;;;;;8.96;69.93;102276.38;6245054;22;20026;-63
2022/03/16 08:16:31;;;;;;;15.40;10.15;;;;;;;9.17;70.65;102281.63;6245189;23;20050;-62
2022/03/16 08:18:56;;;;;;;14.63;10.43;;;;;;;9.27;69.25;102278.50;6245007;23;20473;-63
2022/03/16 08:21:22;;;;;;;15.77;10.55;;;;;;;9.28;68.63;102281.19;6245292;23;20046;-62
2022/03/16 08:23:48;;;;;;;14.45;10.55;;;;;;;9.23;68.72;102272.19;6244282;22;20015;-63
2022/03/16 08:26:14;;;;;;;15.55;10.80;;;;;;;9.20;68.94;102276.44;6244367;22;20007;-62
2022/03/16 08:28:39;;;;;;;15.63;10.20;;;;;;;9.22;69.42;102270.41;6244923;23;20008;-63
2022/03/16 08:31:05;;;;;;;15.68;11.00;;;;;;;9.37;69.05;102267.44;6245396;22;20014;-63
2022/03/16 08:33:31;;;;;;;14.93;10.48;;;;;;;9.59;68.12;102266.50;6245115;22;20000;-63
2022/03/16 08:35:57;;;;;;;14.18;10.68;;;;;;;9.81;67.02;102257.69;6244931;23;20004;-62
2022/03/16 08:38:23;;;;;;;14.98;10.10;;;;;;;9.98;66.44;102256.53;6244431;22;20429;-62
2022/03/16 08:40:48;;;;;;;16.60;11.07;;;;;;;10.18;65.13;102269.53;6244605;22;20011;-62
2022/03/16 08:43:14;;;;;;;13.43;10.00;;;;;;;10.35;65.30;102259.59;6244740;22;20032;-63
2022/03/16 08:45:40;;;;;;;15.43;10.50;;;;;;;10.48;64.64;102260.06;6244718;22;20005;-63
2022/03/16 08:48:05;;;;;;;15.23;10.70;;;;;;;10.61;65.12;102261.38;6244635;22;20008;-63
2022/03/16 08:50:31;;;;;;;16.20;11.00;;;;;;;10.75;63.13;102265.38;6244515;22;20058;-62
2022/03/16 08:52:58;;;;;;;16.35;11.52;;;;;;;10.86;63.20;102271.00;6245125;22;20001;-63
2022/03/16 08:55:24;;;;;;;19.00;10.80;;;;;;;10.88;62.60;102268.44;6245370;22;20027;-62
2022/03/16 08:57:49;;;;;;;17.95;10.75;;;;;;;10.89;62.73;102262.28;6247176;22;20507;-62
2022/03/16 09:00:18;;;;;;;14.15;9.95;;;;;;;11.01;62.23;102262.69;6248115;22;20035;-62
2022/03/16 09:02:43;;;;;;;15.77;11.00;;;;;;;11.08;60.84;102276.97;6247130;22;20004;-63
2022/03/16 09:05:10;;;;;;;15.57;11.55;;;;;;;11.14;61.18;102270.16;6247431;22;20354;-63
2022/03/16 09:07:38;;;;;;;15.20;10.85;;;;;;;11.25;60.90;102268.72;6247280;22;20039;-63
2022/03/16 09:10:04;;;;;;;15.60;10.23;;;;;;;11.38;60.24;102284.97;6247250;22;20000;-62
2022/03/16 09:12:29;;;;;;;14.52;10.57;;;;;;;11.40;60.43;102283.28;6246954;22;20353;-62
2022/03/16 09:14:54;;;;;;;15.60;12.20;;;;;;;11.43;60.43;102278.97;6247266;22;20086;-63
2022/03/16 09:17:20;;;;;;;15.65;11.60;;;;;;;11.52;59.72;102273.06;6247097;23;20004;-62
2022/03/16 09:19:52;;;;;;;15.32;10.55;;;;;;;11.71;58.91;102264.78;6246935;23;20004;-63
2022/03/16 09:22:18;;;;;;;16.15;12.02;;;;;;;11.74;59.57;102259.59;6245355;23;20004;-62
2022/03/16 09:24:43;;;;;;;15.07;10.48;;;;;;;11.75;58.87;102282.56;6247087;23;20011;-62
2022/03/16 09:27:09;;;;;;;15.57;10.90;;;;;;;11.80;59.71;102285.34;6247342;23;20000;-62
2022/03/16 09:29:35;;;;;;;15.85;10.68;;;;;;;11.93;59.12;102270.72;6247192;22;20098;-63
2022/03/16 09:32:00;;;;;;;15.05;11.10;;;;;;;12.09;58.36;102267.66;6247824;22;20050;-63
2022/03/16 09:34:26;;;;;;;13.73;10.15;;;;;;;12.23;58.39;102258.31;6247745;22;20440;-63
2022/03/16 09:36:51;;;;;;;14.93;11.13;;;;;;;12.41;57.90;102270.25;6248157;22;20004;-62
2022/03/16 09:39:17;;;;;;;15.85;11.07;;;;;;;12.50;57.57;102263.47;6246818;22;20076;-63
2022/03/16 09:41:42;;;;;;;15.07;10.85;;;;;;;12.76;57.80;102257.88;6247185;23;20026;-63
2022/03/16 09:44:09;;;;;;;14.90;10.65;;;;;;;12.89;57.10;102257.34;6246792;22;20004;-63
2022/03/16 09:46:36;;;;;;;17.45;11.75;;;;;;;13.13;57.33;102261.41;6247089;22;20361;-63
2022/03/16 09:49:04;;;;;;;16.52;10.95;;;;;;;13.06;55.72;102255.09;6246967;22;20062;-63
2022/03/16 09:51:35;;;;;;;18.60;12.13;;;;;;;12.73;56.33;102257.84;6247178;22;20062;-62
2022/03/16 09:54:02;;;;;;;16.33;11.60;;;;;;;12.78;56.68;102262.38;6245693;23;20000;-63
2022/03/16 09:56:30;;;;;;;16.42;11.38;;;;;;;12.89;57.12;102256.41;6246138;22;20023;-63
2022/03/16 09:58:56;;;;;;;16.80;11.43;;;;;;;13.08;56.23;102249.81;6246570;22;20036;-63
2022/03/16 10:01:21;;;;;;;16.88;12.20;;;;;;;13.25;55.36;102246.69;6246647;23;20130;-63
2022/03/16 10:03:48;;;;;;;17.58;11.82;;;;;;;13.31;55.67;102243.28;6246576;23;20445;-64
2022/03/16 10:06:16;;;;;;;15.68;11.45;;;;;;;13.56;55.04;102246.47;6246581;22;20059;-63
2022/03/16 10:08:42;;;;;;;15.35;11.88;;;;;;;13.78;53.46;102228.31;6246294;22;20058;-63
2022/03/16 10:14:06;;;;;;;16.17;11.55;;;;;;;14.09;54.47;102226.28;6246640;23;20027;-63
2022/03/16 10:19:19;;;;;;;15.25;11.45;;;;;;;14.59;52.33;102241.34;6246604;23;20091;-63
2022/03/16 10:21:58;;;;;;;14.25;11.25;;;;;;;14.43;52.93;102233.09;6246763;22;20078;-63
2022/03/16 10:24:29;;;;;;;14.40;11.32;;;;;;;14.56;52.90;102233.31;6246900;22;20000;-63
2022/03/16 10:26:58;;;;;;;15.93;11.40;;;;;;;14.60;51.99;102238.69;6246839;22;20004;-62
2022/03/16 10:29:31;;;;;;;15.52;11.10;;;;;;;14.60;52.50;102233.38;6246633;22;20008;-62
2022/03/16 10:32:01;;;;;;;17.73;11.38;;;;;;;14.61;52.82;102227.22;6246743;22;20054;-63
2022/03/16 10:34:27;;;;;;;14.73;11.27;;;;;;;14.57;51.95;102233.34;6246456;22;20001;-63
2022/03/16 10:36:52;;;;;;;15.95;11.93;;;;;;;14.84;51.94;102226.66;6246866;22;20004;-63
2022/03/16 10:39:18;;;;;;;15.75;11.50;;;;;;;14.95;51.68;102231.28;6246793;22;20297;-63
2022/03/16 10:47:18;;;;;;;14.27;11.85;;;;;;;15.05;51.85;102226.09;6246363;23;20015;-64
2022/03/16 10:49:45;;;;;;;13.90;11.02;;;;;;;15.20;50.62;102220.97;6246505;22;20007;-63
2022/03/16 10:52:17;;;;;;;13.70;9.80;;;;;;;15.35;51.54;102215.88;6246557;22;20067;-63
2022/03/16 10:54:45;;;;;;;15.20;10.70;;;;;;;15.17;50.71;102215.63;6246613;22;20011;-64
2022/03/16 10:57:13;;;;;;;17.15;11.52;;;;;;;15.22;50.69;102200.59;6246053;22;20464;-62
2022/03/16 10:59:44;;;;;;;15.93;11.27;;;;;;;15.25;50.76;102198.00;6246700;22;20016;-63
2022/03/16 11:02:13;;;;;;;16.60;11.50;;;;;;;15.25;51.50;102203.31;6246582;22;20062;-63
2022/03/16 11:04:50;;;;;;;18.77;11.00;;;;;;;15.35;51.41;102209.66;6246462;22;20007;-63
2022/03/16 11:07:18;;;;;;;15.80;12.02;;;;;;;15.49;50.08;102200.94;6246167;22;20004;-63
2022/03/16 11:09:43;;;;;;;13.77;10.55;;;;;;;15.62;50.36;102194.00;6246301;22;20476;-64
2022/03/16 11:14:53;;;;;;;17.60;10.32;;;;;;;15.72;51.35;102187.94;6246416;23;20146;-63
2022/03/16 11:17:19;;;;;;;16.98;10.68;;;;;;;15.75;49.85;102187.94;6246101;22;20038;-63
2022/03/16 11:19:48;;;;;;;13.60;10.95;;;;;;;15.63;50.68;102197.53;6245926;22;20011;-63
2022/03/16 11:22:19;;;;;;;13.80;10.70;;;;;;;15.45;50.72;102196.44;6245683;22;20091;-63
2022/03/16 11:25:00;;;;;;;14.07;11.25;;;;;;;15.42;51.34;102200.88;6246050;22;20027;-63